sensor_id;sensor_type;location;lat;lon;timestamp;temperature;humidity
12123;DHT22;6125;59.628;17.852;2023-02-02T00:01:32;-2.80;99.90
12123;DHT22;6125;59.628;17.852;2023-02-02T00:03:59;-2.80;99.90
12123;DHT22;6125;59.628;17.852;2023-02-02T00:06:28;-2.80;99.90
12123;DHT22;6125;59.628;17.852;2023-02-02T00:09:00;-2.80;99.90
12123;DHT22;6125;59.628;17.852;2023-02-02T00:11:28;-2.90;99.90
12123;DHT22;6125;59.628;17.852;2023-02-02T00:14:00;-2.70;99.90
12123;DHT22;6125;59.628;17.852;2023-02-02T00:16:38;-2.80;99.90
12123;DHT22;6125;59.628;17.852;2023-02-02T00:19:07;-2.70;99.90
12123;DHT22;6125;59.628;17.852;2023-02-02T00:21:34;-2.70;99.90
12123;DHT22;6125;59.628;17.852;2023-02-02T00:24:04;-2.60;99.90
12123;DHT22;6125;59.628;17.852;2023-02-02T00:26:33;-2.70;99.90
12123;DHT22;6125;59.628;17.852;2023-02-02T00:29:02;-2.70;99.90
12123;DHT22;6125;59.628;17.852;2023-02-02T00:31:30;-2.70;99.90
12123;DHT22;6125;59.628;17.852;2023-02-02T00:33:57;-2.70;99.90
12123;DHT22;6125;59.628;17.852;2023-02-02T00:36:24;-2.60;99.90
12123;DHT22;6125;59.628;17.852;2023-02-02T00:38:52;-2.60;99.90
12123;DHT22;6125;59.628;17.852;2023-02-02T00:41:22;-2.60;99.90
12123;DHT22;6125;59.628;17.852;2023-02-02T00:44:04;-2.50;99.90
12123;DHT22;6125;59.628;17.852;2023-02-02T00:46:48;-2.50;99.90
12123;DHT22;6125;59.628;17.852;2023-02-02T00:49:16;-2.50;99.90
12123;DHT22;6125;59.628;17.852;2023-02-02T00:51:43;-2.40;99.90
12123;DHT22;6125;59.628;17.852;2023-02-02T00:54:10;-2.40;99.90
12123;DHT22;6125;59.628;17.852;2023-02-02T00:56:40;-2.40;99.90
12123;DHT22;6125;59.628;17.852;2023-02-02T00:59:09;-2.30;99.90
12123;DHT22;6125;59.628;17.852;2023-02-02T01:01:36;-2.30;99.90
12123;DHT22;6125;59.628;17.852;2023-02-02T01:04:05;-2.30;99.90
12123;DHT22;6125;59.628;17.852;2023-02-02T01:06:32;-2.30;99.90
12123;DHT22;6125;59.628;17.852;2023-02-02T01:08:59;-2.30;99.90
12123;DHT22;6125;59.628;17.852;2023-02-02T01:11:29;-2.20;99.90
12123;DHT22;6125;59.628;17.852;2023-02-02T01:13:56;-2.20;99.90
12123;DHT22;6125;59.628;17.852;2023-02-02T01:16:26;-2.20;99.90
12123;DHT22;6125;59.628;17.852;2023-02-02T01:18:53;-2.20;99.90
12123;DHT22;6125;59.628;17.852;2023-02-02T01:21:21;-2.20;99.90
12123;DHT22;6125;59.628;17.852;2023-02-02T01:23:49;-2.20;99.90
12123;DHT22;6125;59.628;17.852;2023-02-02T01:26:17;-2.20;99.90
12123;DHT22;6125;59.628;17.852;2023-02-02T01:28:52;-2.10;99.90
12123;DHT22;6125;59.628;17.852;2023-02-02T01:31:22;-2.10;99.90
12123;DHT22;6125;59.628;17.852;2023-02-02T01:33:51;-2.20;99.90
12123;DHT22;6125;59.628;17.852;2023-02-02T01:36:19;-2.20;99.90
12123;DHT22;6125;59.628;17.852;2023-02-02T01:38:47;-2.30;99.90
12123;DHT22;6125;59.628;17.852;2023-02-02T01:41:17;-2.30;99.90
12123;DHT22;6125;59.628;17.852;2023-02-02T01:43:52;-2.30;99.90
12123;DHT22;6125;59.628;17.852;2023-02-02T01:46:29;-2.20;99.90
12123;DHT22;6125;59.628;17.852;2023-02-02T01:49:03;-2.30;99.90
12123;DHT22;6125;59.628;17.852;2023-02-02T01:51:36;-2.20;99.90
12123;DHT22;6125;59.628;17.852;2023-02-02T01:54:15;-2.20;99.90
12123;DHT22;6125;59.628;17.852;2023-02-02T01:56:48;-2.20;99.90
12123;DHT22;6125;59.628;17.852;2023-02-02T01:59:17;-2.20;99.90
12123;DHT22;6125;59.628;17.852;2023-02-02T02:01:47;-2.10;99.90
12123;DHT22;6125;59.628;17.852;2023-02-02T02:04:23;-2.10;99.90
12123;DHT22;6125;59.628;17.852;2023-02-02T02:06:52;-2.10;99.90
12123;DHT22;6125;59.628;17.852;2023-02-02T02:09:19;-2.10;99.90
12123;DHT22;6125;59.628;17.852;2023-02-02T02:11:50;-2.10;99.90
12123;DHT22;6125;59.628;17.852;2023-02-02T02:14:18;-2.10;99.90
12123;DHT22;6125;59.628;17.852;2023-02-02T02:17:13;-2.10;99.90
12123;DHT22;6125;59.628;17.852;2023-02-02T02:20:13;-2.10;99.90
12123;DHT22;6125;59.628;17.852;2023-02-02T02:23:26;-2.10;99.90
12123;DHT22;6125;59.628;17.852;2023-02-02T02:26:30;-2.10;99.90
12123;DHT22;6125;59.628;17.852;2023-02-02T02:29:31;-2.10;99.90
12123;DHT22;6125;59.628;17.852;2023-02-02T02:32:17;-2.10;99.90
12123;DHT22;6125;59.628;17.852;2023-02-02T02:34:53;-2.10;99.90
12123;DHT22;6125;59.628;17.852;2023-02-02T02:37:28;-2.10;99.90
12123;DHT22;6125;59.628;17.852;2023-02-02T02:40:00;-2.10;99.90
12123;DHT22;6125;59.628;17.852;2023-02-02T02:42:32;-2.10;99.90
12123;DHT22;6125;59.628;17.852;2023-02-02T02:45:01;-2.10;99.90
12123;DHT22;6125;59.628;17.852;2023-02-02T02:47:32;-2.10;99.90
12123;DHT22;6125;59.628;17.852;2023-02-02T02:50:00;-2.10;99.90
12123;DHT22;6125;59.628;17.852;2023-02-02T02:52:27;-2.10;99.90
12123;DHT22;6125;59.628;17.852;2023-02-02T02:54:55;-2.20;99.90
12123;DHT22;6125;59.628;17.852;2023-02-02T02:57:41;-2.20;99.90
12123;DHT22;6125;59.628;17.852;2023-02-02T03:00:28;-2.20;99.90
12123;DHT22;6125;59.628;17.852;2023-02-02T03:03:04;-2.30;99.90
12123;DHT22;6125;59.628;17.852;2023-02-02T03:05:41;-2.30;99.90
12123;DHT22;6125;59.628;17.852;2023-02-02T03:08:14;-2.30;99.90
12123;DHT22;6125;59.628;17.852;2023-02-02T03:10:45;-2.30;99.90
12123;DHT22;6125;59.628;17.852;2023-02-02T03:13:13;-2.30;99.90
12123;DHT22;6125;59.628;17.852;2023-02-02T03:15:42;-2.30;99.90
12123;DHT22;6125;59.628;17.852;2023-02-02T03:18:11;-2.30;99.90
12123;DHT22;6125;59.628;17.852;2023-02-02T03:20:39;-2.40;99.90
12123;DHT22;6125;59.628;17.852;2023-02-02T03:23:06;-2.40;99.90
12123;DHT22;6125;59.628;17.852;2023-02-02T03:25:33;-2.40;99.90
12123;DHT22;6125;59.628;17.852;2023-02-02T03:28:00;-2.40;99.90
12123;DHT22;6125;59.628;17.852;2023-02-02T03:30:31;-2.40;99.90
12123;DHT22;6125;59.628;17.852;2023-02-02T03:33:04;-2.50;99.90
12123;DHT22;6125;59.628;17.852;2023-02-02T03:35:35;-2.50;99.90
12123;DHT22;6125;59.628;17.852;2023-02-02T03:38:02;-2.50;99.90
12123;DHT22;6125;59.628;17.852;2023-02-02T03:40:32;-2.50;99.90
12123;DHT22;6125;59.628;17.852;2023-02-02T03:42:59;-2.40;99.90
12123;DHT22;6125;59.628;17.852;2023-02-02T03:45:27;-2.60;99.90
12123;DHT22;6125;59.628;17.852;2023-02-02T03:47:54;-2.60;99.90
12123;DHT22;6125;59.628;17.852;2023-02-02T03:50:23;-2.60;99.90
12123;DHT22;6125;59.628;17.852;2023-02-02T03:52:59;-2.60;99.90
12123;DHT22;6125;59.628;17.852;2023-02-02T03:55:26;-2.70;99.90
12123;DHT22;6125;59.628;17.852;2023-02-02T03:57:53;-2.70;99.90
12123;DHT22;6125;59.628;17.852;2023-02-02T04:00:23;-2.70;99.90
12123;DHT22;6125;59.628;17.852;2023-02-02T04:02:50;-2.70;99.90
12123;DHT22;6125;59.628;17.852;2023-02-02T04:05:19;-2.70;99.90
12123;DHT22;6125;59.628;17.852;2023-02-02T04:07:46;-2.70;99.90
12123;DHT22;6125;59.628;17.852;2023-02-02T04:10:21;-2.70;99.90
12123;DHT22;6125;59.628;17.852;2023-02-02T04:12:52;-2.70;99.90
12123;DHT22;6125;59.628;17.852;2023-02-02T04:15:20;-2.60;99.90
12123;DHT22;6125;59.628;17.852;2023-02-02T04:17:47;-2.70;99.90
12123;DHT22;6125;59.628;17.852;2023-02-02T04:20:15;-2.70;99.90
12123;DHT22;6125;59.628;17.852;2023-02-02T04:22:42;-2.70;99.90
12123;DHT22;6125;59.628;17.852;2023-02-02T04:25:09;-2.60;99.90
12123;DHT22;6125;59.628;17.852;2023-02-02T04:27:38;-2.70;99.90
12123;DHT22;6125;59.628;17.852;2023-02-02T04:30:06;-2.70;99.90
12123;DHT22;6125;59.628;17.852;2023-02-02T04:32:33;-2.70;99.90
12123;DHT22;6125;59.628;17.852;2023-02-02T04:35:00;-2.70;99.90
12123;DHT22;6125;59.628;17.852;2023-02-02T04:37:30;-2.70;99.90
12123;DHT22;6125;59.628;17.852;2023-02-02T04:39:57;-2.60;99.90
12123;DHT22;6125;59.628;17.852;2023-02-02T04:42:24;-2.60;99.90
12123;DHT22;6125;59.628;17.852;2023-02-02T04:44:57;-2.60;99.90
12123;DHT22;6125;59.628;17.852;2023-02-02T04:47:24;-2.50;99.90
12123;DHT22;6125;59.628;17.852;2023-02-02T04:49:51;-2.60;99.90
12123;DHT22;6125;59.628;17.852;2023-02-02T04:52:18;-2.60;99.90
12123;DHT22;6125;59.628;17.852;2023-02-02T04:54:45;-2.60;99.90
12123;DHT22;6125;59.628;17.852;2023-02-02T04:57:12;-2.60;99.90
12123;DHT22;6125;59.628;17.852;2023-02-02T04:59:39;-2.60;99.90
12123;DHT22;6125;59.628;17.852;2023-02-02T05:02:08;-2.60;99.90
12123;DHT22;6125;59.628;17.852;2023-02-02T05:04:35;-2.60;99.90
12123;DHT22;6125;59.628;17.852;2023-02-02T05:07:02;-2.60;99.90
12123;DHT22;6125;59.628;17.852;2023-02-02T05:09:30;-2.70;99.90
12123;DHT22;6125;59.628;17.852;2023-02-02T05:11:59;-2.70;99.90
12123;DHT22;6125;59.628;17.852;2023-02-02T05:14:26;-2.70;99.90
12123;DHT22;6125;59.628;17.852;2023-02-02T05:16:55;-2.70;99.90
12123;DHT22;6125;59.628;17.852;2023-02-02T05:19:23;-2.70;99.90
12123;DHT22;6125;59.628;17.852;2023-02-02T05:21:50;-2.70;99.90
12123;DHT22;6125;59.628;17.852;2023-02-02T05:24:19;-2.70;99.90
12123;DHT22;6125;59.628;17.852;2023-02-02T05:26:49;-2.60;99.90
12123;DHT22;6125;59.628;17.852;2023-02-02T05:29:17;-2.60;99.90
12123;DHT22;6125;59.628;17.852;2023-02-02T05:31:44;-2.60;99.90
12123;DHT22;6125;59.628;17.852;2023-02-02T05:34:11;-2.60;99.90
12123;DHT22;6125;59.628;17.852;2023-02-02T05:36:44;-2.60;99.90
12123;DHT22;6125;59.628;17.852;2023-02-02T05:39:11;-2.60;99.90
12123;DHT22;6125;59.628;17.852;2023-02-02T05:41:38;-2.60;99.90
12123;DHT22;6125;59.628;17.852;2023-02-02T05:44:10;-2.70;99.90
12123;DHT22;6125;59.628;17.852;2023-02-02T05:46:38;-2.70;99.90
12123;DHT22;6125;59.628;17.852;2023-02-02T05:49:10;-2.70;99.90
12123;DHT22;6125;59.628;17.852;2023-02-02T05:51:44;-2.70;99.90
12123;DHT22;6125;59.628;17.852;2023-02-02T05:54:12;-2.70;99.90
12123;DHT22;6125;59.628;17.852;2023-02-02T05:56:46;-2.70;99.90
12123;DHT22;6125;59.628;17.852;2023-02-02T05:59:14;-2.80;99.90
12123;DHT22;6125;59.628;17.852;2023-02-02T06:01:43;-2.80;99.90
12123;DHT22;6125;59.628;17.852;2023-02-02T06:04:11;-2.80;99.90
12123;DHT22;6125;59.628;17.852;2023-02-02T06:06:38;-2.80;99.90
12123;DHT22;6125;59.628;17.852;2023-02-02T06:09:11;-2.80;99.90
12123;DHT22;6125;59.628;17.852;2023-02-02T06:11:43;-2.80;99.90
12123;DHT22;6125;59.628;17.852;2023-02-02T06:14:10;-2.80;99.90
12123;DHT22;6125;59.628;17.852;2023-02-02T06:16:38;-2.80;99.90
12123;DHT22;6125;59.628;17.852;2023-02-02T06:19:05;-2.70;99.90
12123;DHT22;6125;59.628;17.852;2023-02-02T06:21:35;-2.90;99.90
12123;DHT22;6125;59.628;17.852;2023-02-02T06:24:03;-2.90;99.90
12123;DHT22;6125;59.628;17.852;2023-02-02T06:26:31;-2.90;99.90
12123;DHT22;6125;59.628;17.852;2023-02-02T06:28:58;-2.90;99.90
12123;DHT22;6125;59.628;17.852;2023-02-02T06:31:29;-2.90;99.90
12123;DHT22;6125;59.628;17.852;2023-02-02T06:33:58;-2.90;99.90
12123;DHT22;6125;59.628;17.852;2023-02-02T06:36:26;-2.90;99.90
12123;DHT22;6125;59.628;17.852;2023-02-02T06:38:55;-2.90;99.90
12123;DHT22;6125;59.628;17.852;2023-02-02T06:41:23;-3.00;99.90
12123;DHT22;6125;59.628;17.852;2023-02-02T06:43:51;-3.00;99.90
12123;DHT22;6125;59.628;17.852;2023-02-02T06:46:19;-3.00;99.90
12123;DHT22;6125;59.628;17.852;2023-02-02T06:48:46;-3.00;99.90
12123;DHT22;6125;59.628;17.852;2023-02-02T06:51:14;-3.00;99.90
12123;DHT22;6125;59.628;17.852;2023-02-02T06:53:42;-3.00;99.90
12123;DHT22;6125;59.628;17.852;2023-02-02T06:56:11;-3.00;99.90
12123;DHT22;6125;59.628;17.852;2023-02-02T06:58:40;-3.10;99.90
12123;DHT22;6125;59.628;17.852;2023-02-02T07:01:11;-3.10;99.90
12123;DHT22;6125;59.628;17.852;2023-02-02T07:03:39;-3.10;99.90
12123;DHT22;6125;59.628;17.852;2023-02-02T07:06:11;-3.20;99.90
12123;DHT22;6125;59.628;17.852;2023-02-02T07:08:38;-3.20;99.90
12123;DHT22;6125;59.628;17.852;2023-02-02T07:11:05;-3.30;99.90
12123;DHT22;6125;59.628;17.852;2023-02-02T07:13:32;-3.40;99.90
12123;DHT22;6125;59.628;17.852;2023-02-02T07:16:01;-3.40;99.90
12123;DHT22;6125;59.628;17.852;2023-02-02T07:18:31;-3.40;99.90
12123;DHT22;6125;59.628;17.852;2023-02-02T07:20:58;-3.50;99.90
12123;DHT22;6125;59.628;17.852;2023-02-02T07:23:26;-3.50;99.90
12123;DHT22;6125;59.628;17.852;2023-02-02T07:26:08;-3.60;99.90
12123;DHT22;6125;59.628;17.852;2023-02-02T07:28:35;-3.60;99.90
12123;DHT22;6125;59.628;17.852;2023-02-02T07:31:12;-3.70;99.90
12123;DHT22;6125;59.628;17.852;2023-02-02T07:33:42;-3.80;99.90
12123;DHT22;6125;59.628;17.852;2023-02-02T07:36:09;-3.80;99.90
12123;DHT22;6125;59.628;17.852;2023-02-02T07:38:38;-3.90;99.90
12123;DHT22;6125;59.628;17.852;2023-02-02T07:41:05;-3.90;99.90
12123;DHT22;6125;59.628;17.852;2023-02-02T07:43:35;-4.00;99.90
12123;DHT22;6125;59.628;17.852;2023-02-02T07:46:04;-4.00;99.90
12123;DHT22;6125;59.628;17.852;2023-02-02T07:48:33;-4.00;99.90
12123;DHT22;6125;59.628;17.852;2023-02-02T07:51:07;-4.00;99.90
12123;DHT22;6125;59.628;17.852;2023-02-02T07:53:34;-4.10;99.90
12123;DHT22;6125;59.628;17.852;2023-02-02T07:56:08;-4.10;99.90
12123;DHT22;6125;59.628;17.852;2023-02-02T07:58:39;-4.10;99.90
12123;DHT22;6125;59.628;17.852;2023-02-02T08:01:08;-4.10;99.90
12123;DHT22;6125;59.628;17.852;2023-02-02T08:03:40;-4.10;99.90
12123;DHT22;6125;59.628;17.852;2023-02-02T08:06:11;-4.10;99.90
12123;DHT22;6125;59.628;17.852;2023-02-02T08:08:39;-4.10;99.90
12123;DHT22;6125;59.628;17.852;2023-02-02T08:11:17;-4.10;99.90
12123;DHT22;6125;59.628;17.852;2023-02-02T08:13:48;-4.10;99.90
12123;DHT22;6125;59.628;17.852;2023-02-02T08:16:16;-4.10;99.90
12123;DHT22;6125;59.628;17.852;2023-02-02T08:18:47;-4.10;99.90
12123;DHT22;6125;59.628;17.852;2023-02-02T08:21:17;-4.10;99.90
12123;DHT22;6125;59.628;17.852;2023-02-02T08:23:45;-4.00;99.90
12123;DHT22;6125;59.628;17.852;2023-02-02T08:26:14;-4.00;99.90
12123;DHT22;6125;59.628;17.852;2023-02-02T08:28:45;-4.00;99.90
12123;DHT22;6125;59.628;17.852;2023-02-02T08:31:15;-3.90;99.90
12123;DHT22;6125;59.628;17.852;2023-02-02T08:33:42;-3.90;99.90
12123;DHT22;6125;59.628;17.852;2023-02-02T08:36:11;-3.70;99.90
12123;DHT22;6125;59.628;17.852;2023-02-02T08:38:40;-3.80;99.90
12123;DHT22;6125;59.628;17.852;2023-02-02T08:41:08;-3.70;99.90
12123;DHT22;6125;59.628;17.852;2023-02-02T08:43:36;-3.70;99.90
12123;DHT22;6125;59.628;17.852;2023-02-02T08:46:05;-3.60;99.90
12123;DHT22;6125;59.628;17.852;2023-02-02T08:48:33;-3.60;99.90
12123;DHT22;6125;59.628;17.852;2023-02-02T08:51:01;-3.80;99.90
12123;DHT22;6125;59.628;17.852;2023-02-02T08:53:29;-3.60;99.90
12123;DHT22;6125;59.628;17.852;2023-02-02T08:55:59;-3.50;99.90
12123;DHT22;6125;59.628;17.852;2023-02-02T08:58:27;-3.50;99.90
12123;DHT22;6125;59.628;17.852;2023-02-02T09:00:54;-3.40;99.90
12123;DHT22;6125;59.628;17.852;2023-02-02T09:03:21;-3.40;99.90
12123;DHT22;6125;59.628;17.852;2023-02-02T09:05:48;-3.30;99.90
12123;DHT22;6125;59.628;17.852;2023-02-02T09:08:15;-3.30;99.90
12123;DHT22;6125;59.628;17.852;2023-02-02T09:10:42;-3.20;99.90
12123;DHT22;6125;59.628;17.852;2023-02-02T09:13:11;-3.10;99.90
12123;DHT22;6125;59.628;17.852;2023-02-02T09:15:41;-3.10;99.90
12123;DHT22;6125;59.628;17.852;2023-02-02T09:18:09;-3.00;99.90
12123;DHT22;6125;59.628;17.852;2023-02-02T09:20:36;-3.00;99.90
12123;DHT22;6125;59.628;17.852;2023-02-02T09:23:04;-3.00;99.90
12123;DHT22;6125;59.628;17.852;2023-02-02T09:25:31;-2.90;99.90
12123;DHT22;6125;59.628;17.852;2023-02-02T09:27:59;-2.90;99.90
12123;DHT22;6125;59.628;17.852;2023-02-02T09:30:33;-2.80;99.90
12123;DHT22;6125;59.628;17.852;2023-02-02T09:33:00;-2.80;99.90
12123;DHT22;6125;59.628;17.852;2023-02-02T09:35:27;-2.80;99.90
12123;DHT22;6125;59.628;17.852;2023-02-02T09:37:54;-2.90;99.90
12123;DHT22;6125;59.628;17.852;2023-02-02T09:40:22;-2.90;99.90
12123;DHT22;6125;59.628;17.852;2023-02-02T09:43:01;-2.90;99.90
12123;DHT22;6125;59.628;17.852;2023-02-02T09:45:39;-2.80;99.90
12123;DHT22;6125;59.628;17.852;2023-02-02T09:48:22;-2.90;99.90
12123;DHT22;6125;59.628;17.852;2023-02-02T09:50:53;-2.90;99.90
12123;DHT22;6125;59.628;17.852;2023-02-02T09:53:33;-2.90;99.90
12123;DHT22;6125;59.628;17.852;2023-02-02T09:56:05;-2.90;99.90
12123;DHT22;6125;59.628;17.852;2023-02-02T09:58:38;-2.90;99.90
12123;DHT22;6125;59.628;17.852;2023-02-02T10:01:11;-3.00;99.90
12123;DHT22;6125;59.628;17.852;2023-02-02T10:03:56;-3.10;99.90
12123;DHT22;6125;59.628;17.852;2023-02-02T10:06:32;-3.30;99.90
12123;DHT22;6125;59.628;17.852;2023-02-02T10:09:09;-3.20;99.90
12123;DHT22;6125;59.628;17.852;2023-02-02T10:11:48;-3.10;99.90
12123;DHT22;6125;59.628;17.852;2023-02-02T10:14:22;-3.00;99.90
12123;DHT22;6125;59.628;17.852;2023-02-02T10:16:55;-3.10;99.90
12123;DHT22;6125;59.628;17.852;2023-02-02T10:19:24;-3.00;99.90
12123;DHT22;6125;59.628;17.852;2023-02-02T10:22:01;-3.00;99.90
12123;DHT22;6125;59.628;17.852;2023-02-02T10:24:33;-2.80;99.90
12123;DHT22;6125;59.628;17.852;2023-02-02T10:27:04;-2.70;99.90
12123;DHT22;6125;59.628;17.852;2023-02-02T10:29:36;-2.60;99.90
12123;DHT22;6125;59.628;17.852;2023-02-02T10:32:15;-2.50;99.90
12123;DHT22;6125;59.628;17.852;2023-02-02T10:35:10;-2.50;99.90
12123;DHT22;6125;59.628;17.852;2023-02-02T10:37:47;-2.60;99.90
12123;DHT22;6125;59.628;17.852;2023-02-02T10:40:30;-2.70;99.90
12123;DHT22;6125;59.628;17.852;2023-02-02T10:43:20;-2.70;99.90
12123;DHT22;6125;59.628;17.852;2023-02-02T10:46:13;-2.70;99.90
12123;DHT22;6125;59.628;17.852;2023-02-02T10:48:46;-2.70;99.90
12123;DHT22;6125;59.628;17.852;2023-02-02T10:51:19;-2.60;99.90
12123;DHT22;6125;59.628;17.852;2023-02-02T10:53:49;-2.60;99.90
12123;DHT22;6125;59.628;17.852;2023-02-02T10:56:21;-2.70;99.90
12123;DHT22;6125;59.628;17.852;2023-02-02T10:58:56;-2.70;99.90
12123;DHT22;6125;59.628;17.852;2023-02-02T11:01:25;-2.60;99.90
12123;DHT22;6125;59.628;17.852;2023-02-02T11:03:53;-2.60;99.90
12123;DHT22;6125;59.628;17.852;2023-02-02T11:06:36;-2.60;99.90
12123;DHT22;6125;59.628;17.852;2023-02-02T11:09:21;-2.60;99.90
12123;DHT22;6125;59.628;17.852;2023-02-02T11:11:54;-2.60;99.90
12123;DHT22;6125;59.628;17.852;2023-02-02T11:14:29;-2.50;99.90
12123;DHT22;6125;59.628;17.852;2023-02-02T11:17:05;-2.50;99.90
12123;DHT22;6125;59.628;17.852;2023-02-02T11:19:34;-2.40;99.90
12123;DHT22;6125;59.628;17.852;2023-02-02T11:22:04;-2.30;99.90
12123;DHT22;6125;59.628;17.852;2023-02-02T11:24:39;-2.30;99.90
12123;DHT22;6125;59.628;17.852;2023-02-02T11:27:16;-2.20;99.90
12123;DHT22;6125;59.628;17.852;2023-02-02T11:29:47;-2.30;99.90
12123;DHT22;6125;59.628;17.852;2023-02-02T11:32:26;-2.20;99.90
12123;DHT22;6125;59.628;17.852;2023-02-02T11:35:21;-2.20;99.90
12123;DHT22;6125;59.628;17.852;2023-02-02T11:37:54;-2.10;99.90
12123;DHT22;6125;59.628;17.852;2023-02-02T11:40:28;-2.00;99.90
12123;DHT22;6125;59.628;17.852;2023-02-02T11:42:58;-1.90;99.90
12123;DHT22;6125;59.628;17.852;2023-02-02T11:45:31;-1.90;99.90
12123;DHT22;6125;59.628;17.852;2023-02-02T11:48:05;-1.80;99.90
12123;DHT22;6125;59.628;17.852;2023-02-02T11:50:36;-1.70;99.90
12123;DHT22;6125;59.628;17.852;2023-02-02T11:53:21;-1.50;99.90
12123;DHT22;6125;59.628;17.852;2023-02-02T11:55:51;-1.50;99.90
12123;DHT22;6125;59.628;17.852;2023-02-02T11:58:23;-1.40;99.90
12123;DHT22;6125;59.628;17.852;2023-02-02T12:00:55;-1.40;99.90
12123;DHT22;6125;59.628;17.852;2023-02-02T12:03:28;-1.40;99.90
12123;DHT22;6125;59.628;17.852;2023-02-02T12:05:58;-1.20;99.90
12123;DHT22;6125;59.628;17.852;2023-02-02T12:08:27;-1.20;99.90
12123;DHT22;6125;59.628;17.852;2023-02-02T12:11:04;-1.20;99.90
12123;DHT22;6125;59.628;17.852;2023-02-02T12:13:51;-1.20;99.90
12123;DHT22;6125;59.628;17.852;2023-02-02T12:19:48;-1.30;99.90
12123;DHT22;6125;59.628;17.852;2023-02-02T12:22:33;-1.30;99.90
12123;DHT22;6125;59.628;17.852;2023-02-02T12:25:20;-1.30;99.90
12123;DHT22;6125;59.628;17.852;2023-02-02T12:27:57;-1.30;99.90
12123;DHT22;6125;59.628;17.852;2023-02-02T12:30:34;-1.30;99.90
12123;DHT22;6125;59.628;17.852;2023-02-02T12:33:12;-1.20;99.90
12123;DHT22;6125;59.628;17.852;2023-02-02T12:35:52;-1.20;99.90
12123;DHT22;6125;59.628;17.852;2023-02-02T12:38:35;-1.10;99.90
12123;DHT22;6125;59.628;17.852;2023-02-02T12:41:22;-1.20;99.90
12123;DHT22;6125;59.628;17.852;2023-02-02T12:44:00;-1.10;99.90
12123;DHT22;6125;59.628;17.852;2023-02-02T12:46:45;-1.10;99.90
12123;DHT22;6125;59.628;17.852;2023-02-02T12:49:35;-1.10;99.90
12123;DHT22;6125;59.628;17.852;2023-02-02T12:52:18;-0.90;99.90
12123;DHT22;6125;59.628;17.852;2023-02-02T12:57:49;-0.80;99.90
12123;DHT22;6125;59.628;17.852;2023-02-02T13:00:40;-1.00;99.90
12123;DHT22;6125;59.628;17.852;2023-02-02T13:03:29;-1.00;99.90
12123;DHT22;6125;59.628;17.852;2023-02-02T13:06:18;-1.10;99.90
12123;DHT22;6125;59.628;17.852;2023-02-02T13:08:52;-1.10;99.90
12123;DHT22;6125;59.628;17.852;2023-02-02T13:11:32;-1.00;99.90
12123;DHT22;6125;59.628;17.852;2023-02-02T13:14:10;-0.90;99.90
12123;DHT22;6125;59.628;17.852;2023-02-02T13:16:42;-0.80;99.90
12123;DHT22;6125;59.628;17.852;2023-02-02T13:19:20;-0.80;99.90
12123;DHT22;6125;59.628;17.852;2023-02-02T13:21:50;-0.70;99.90
12123;DHT22;6125;59.628;17.852;2023-02-02T13:24:26;-0.70;99.90
12123;DHT22;6125;59.628;17.852;2023-02-02T13:26:58;-0.70;99.90
12123;DHT22;6125;59.628;17.852;2023-02-02T13:29:32;-0.70;99.90
12123;DHT22;6125;59.628;17.852;2023-02-02T13:32:06;-0.70;99.90
12123;DHT22;6125;59.628;17.852;2023-02-02T13:34:41;-0.70;99.90
12123;DHT22;6125;59.628;17.852;2023-02-02T13:37:17;-0.80;99.90
12123;DHT22;6125;59.628;17.852;2023-02-02T13:39:55;-0.80;99.90
12123;DHT22;6125;59.628;17.852;2023-02-02T13:42:32;-0.70;99.90
12123;DHT22;6125;59.628;17.852;2023-02-02T13:45:08;-0.70;99.90
12123;DHT22;6125;59.628;17.852;2023-02-02T13:47:51;-0.70;99.90
12123;DHT22;6125;59.628;17.852;2023-02-02T13:50:22;-0.70;99.90
12123;DHT22;6125;59.628;17.852;2023-02-02T13:53:10;-0.80;99.90
12123;DHT22;6125;59.628;17.852;2023-02-02T13:56:01;-0.70;99.90
12123;DHT22;6125;59.628;17.852;2023-02-02T13:58:48;-0.70;99.90
12123;DHT22;6125;59.628;17.852;2023-02-02T14:01:20;-0.70;99.90
12123;DHT22;6125;59.628;17.852;2023-02-02T14:03:52;-0.70;99.90
12123;DHT22;6125;59.628;17.852;2023-02-02T14:06:22;-0.80;99.90
12123;DHT22;6125;59.628;17.852;2023-02-02T14:08:52;-0.80;99.90
12123;DHT22;6125;59.628;17.852;2023-02-02T14:11:23;-1.00;99.90
12123;DHT22;6125;59.628;17.852;2023-02-02T14:13:55;-1.20;99.90
12123;DHT22;6125;59.628;17.852;2023-02-02T14:16:44;-1.30;99.90
12123;DHT22;6125;59.628;17.852;2023-02-02T14:19:20;-1.40;99.90
12123;DHT22;6125;59.628;17.852;2023-02-02T14:22:37;-1.60;99.90
12123;DHT22;6125;59.628;17.852;2023-02-02T14:28:44;-1.80;99.90
12123;DHT22;6125;59.628;17.852;2023-02-02T14:31:40;-1.80;99.90
12123;DHT22;6125;59.628;17.852;2023-02-02T14:34:26;-1.90;99.90
12123;DHT22;6125;59.628;17.852;2023-02-02T14:37:09;-2.00;99.90
12123;DHT22;6125;59.628;17.852;2023-02-02T14:39:50;-2.00;99.90
12123;DHT22;6125;59.628;17.852;2023-02-02T14:42:44;-2.10;99.90
12123;DHT22;6125;59.628;17.852;2023-02-02T14:45:29;-2.20;99.90
12123;DHT22;6125;59.628;17.852;2023-02-02T14:48:01;-2.30;99.90
12123;DHT22;6125;59.628;17.852;2023-02-02T14:50:44;-2.30;99.90
12123;DHT22;6125;59.628;17.852;2023-02-02T14:53:30;-2.30;99.90
12123;DHT22;6125;59.628;17.852;2023-02-02T14:56:02;-2.40;99.90
12123;DHT22;6125;59.628;17.852;2023-02-02T14:58:33;-2.40;99.90
12123;DHT22;6125;59.628;17.852;2023-02-02T15:01:07;-2.50;99.90
12123;DHT22;6125;59.628;17.852;2023-02-02T15:03:50;-2.60;99.90
12123;DHT22;6125;59.628;17.852;2023-02-02T15:06:31;-2.60;99.90
12123;DHT22;6125;59.628;17.852;2023-02-02T15:09:26;-2.60;99.90
12123;DHT22;6125;59.628;17.852;2023-02-02T15:12:24;-2.60;99.90
12123;DHT22;6125;59.628;17.852;2023-02-02T15:14:56;-2.70;99.90
12123;DHT22;6125;59.628;17.852;2023-02-02T15:17:32;-2.80;99.90
12123;DHT22;6125;59.628;17.852;2023-02-02T15:20:10;-2.90;99.90
12123;DHT22;6125;59.628;17.852;2023-02-02T15:22:42;-3.00;99.90
12123;DHT22;6125;59.628;17.852;2023-02-02T15:25:17;-3.10;99.90
12123;DHT22;6125;59.628;17.852;2023-02-02T15:27:51;-3.20;99.90
12123;DHT22;6125;59.628;17.852;2023-02-02T15:30:27;-3.20;99.90
12123;DHT22;6125;59.628;17.852;2023-02-02T15:32:55;-3.20;99.90
12123;DHT22;6125;59.628;17.852;2023-02-02T15:35:29;-3.30;99.90
12123;DHT22;6125;59.628;17.852;2023-02-02T15:38:00;-3.30;99.90
12123;DHT22;6125;59.628;17.852;2023-02-02T15:40:31;-3.30;99.90
12123;DHT22;6125;59.628;17.852;2023-02-02T15:43:02;-3.30;99.90
12123;DHT22;6125;59.628;17.852;2023-02-02T15:45:40;-3.40;99.90
12123;DHT22;6125;59.628;17.852;2023-02-02T15:48:24;-3.40;99.90
12123;DHT22;6125;59.628;17.852;2023-02-02T15:50:58;-3.40;99.90
12123;DHT22;6125;59.628;17.852;2023-02-02T15:53:46;-3.40;99.90
12123;DHT22;6125;59.628;17.852;2023-02-02T15:56:19;-3.40;99.90
12123;DHT22;6125;59.628;17.852;2023-02-02T15:58:48;-3.40;99.90
12123;DHT22;6125;59.628;17.852;2023-02-02T16:01:16;-3.40;99.90
12123;DHT22;6125;59.628;17.852;2023-02-02T16:03:49;-3.40;99.90
12123;DHT22;6125;59.628;17.852;2023-02-02T16:06:24;-3.40;99.90
12123;DHT22;6125;59.628;17.852;2023-02-02T16:08:51;-3.40;99.90
12123;DHT22;6125;59.628;17.852;2023-02-02T16:11:21;-3.40;99.90
12123;DHT22;6125;59.628;17.852;2023-02-02T16:13:58;-3.40;99.90
12123;DHT22;6125;59.628;17.852;2023-02-02T16:16:27;-3.50;99.90